Terminal Aerodrome Forecast
Issued by NWS Upton, NY

Home | Current Version | Previous Version | Text Only | Print | Product List | Glossary On
Versions: 1 2 3 4 5 6 7 8 9 10 11 12 13 14 15 16 17 18 19 20 21 22 23 24 25 26 27 28 29 30 31 32 33 34 35 36 37 38
729
FTUS41 KOKX 291537 AAC
TAFJFK
TAF AMD
KJFK 291537Z 2916/3018 02012KT P6SM FEW009 BKN035 BKN100
      TEMPO 2916/2917 BKN025
     FM291800 02009KT P6SM FEW050 SCT120
     FM292200 VRB06KT P6SM SCT050
     FM300000 16004KT P6SM SCT250
     FM300400 21004KT P6SM SCT200
     FM301100 VRB05KT P6SM SCT200
     FM301600 16007KT P6SM VCSH BKN050=

USA.gov is the U.S. government's official web portal to all federal, state and local government web resources and services.